createdAt,value
2018-05-12T00:00:28.180Z,5.20
2018-05-12T00:02:56.721Z,5.53
2018-05-12T00:05:24.292Z,5.50
2018-05-12T00:07:51.871Z,5.20
2018-05-12T00:10:19.786Z,5.40
2018-05-12T00:12:47.339Z,5.67
2018-05-12T00:15:14.919Z,6.10
2018-05-12T00:17:42.471Z,5.67
2018-05-12T00:20:10.042Z,5.37
2018-05-12T00:22:37.621Z,5.43
2018-05-12T00:25:05.351Z,5.33
2018-05-12T00:27:33.051Z,5.40
2018-05-12T00:30:00.639Z,5.77
2018-05-12T00:32:28.227Z,4.97
2018-05-12T00:34:55.793Z,5.70
2018-05-12T00:37:23.411Z,5.27
2018-05-12T00:39:51.535Z,5.43
2018-05-12T00:42:19.101Z,4.73
2018-05-12T00:44:46.662Z,4.87
2018-05-12T00:47:14.223Z,4.20
2018-05-12T00:49:42.782Z,5.33
2018-05-12T00:52:10.327Z,5.40
2018-05-12T00:54:37.924Z,4.80
2018-05-12T00:57:05.487Z,5.70
2018-05-12T00:59:33.215Z,5.30
2018-05-12T01:02:00.807Z,4.67
2018-05-12T01:04:28.384Z,5.43
2018-05-12T01:06:55.953Z,4.53
2018-05-12T01:09:23.503Z,5.60
2018-05-12T01:11:51.186Z,4.67
2018-05-12T01:14:19.536Z,7.03
2018-05-12T01:16:47.073Z,6.63
2018-05-12T01:19:14.663Z,7.03
2018-05-12T01:21:43.740Z,6.17
2018-05-12T01:24:11.299Z,6.30
2018-05-12T01:26:38.936Z,5.77
2018-05-12T01:29:06.520Z,5.00
2018-05-12T01:31:34.246Z,5.23
2018-05-12T01:34:01.840Z,5.00
2018-05-12T01:36:29.380Z,4.63
2018-05-12T01:38:56.960Z,5.07
2018-05-12T01:41:24.524Z,4.80
2018-05-12T01:43:52.091Z,5.27
2018-05-12T01:46:19.647Z,5.03
2018-05-12T01:48:47.260Z,5.53
2018-05-12T01:51:14.808Z,5.53
2018-05-12T01:53:42.376Z,5.30
2018-05-12T01:56:10.040Z,5.87
2018-05-12T01:58:37.744Z,5.50
2018-05-12T02:01:05.334Z,5.67
2018-05-12T02:03:32.942Z,5.80
2018-05-12T02:06:00.492Z,5.23
2018-05-12T02:08:28.048Z,5.30
2018-05-12T02:10:55.694Z,5.53
2018-05-12T02:13:23.200Z,5.60
2018-05-12T02:15:52.496Z,5.50
2018-05-12T02:18:20.348Z,4.97
2018-05-12T02:20:47.911Z,5.27
2018-05-12T02:23:15.741Z,5.43
2018-05-12T02:25:43.308Z,6.10
2018-05-12T02:28:10.865Z,5.73
2018-05-12T02:30:38.413Z,6.37
2018-05-12T02:33:05.983Z,5.30
2018-05-12T02:35:33.551Z,5.53
2018-05-12T02:38:01.136Z,5.33
2018-05-12T02:40:29.012Z,5.27
2018-05-12T02:42:56.563Z,5.47
2018-05-12T02:45:24.141Z,5.50
2018-05-12T02:47:51.718Z,5.50
2018-05-12T02:50:19.407Z,5.33
2018-05-12T02:52:46.966Z,5.20
2018-05-12T02:55:14.517Z,5.63
2018-05-12T02:57:42.319Z,5.97
2018-05-12T03:00:09.869Z,5.23
2018-05-12T03:02:37.419Z,5.50
2018-05-12T03:05:04.985Z,5.67
2018-05-12T03:07:32.556Z,5.50
2018-05-12T03:10:00.105Z,5.37
2018-05-12T03:12:27.824Z,6.10
2018-05-12T03:14:55.395Z,5.47
2018-05-12T03:17:23.803Z,5.60
2018-05-12T03:19:51.299Z,5.67
2018-05-12T03:22:18.847Z,4.97
2018-05-12T03:24:46.423Z,5.60
2018-05-12T03:27:13.960Z,4.90
2018-05-12T03:29:41.573Z,5.70
2018-05-12T03:32:09.113Z,5.60
2018-05-12T03:34:37.458Z,5.80
2018-05-12T03:37:04.989Z,5.67
2018-05-12T03:39:32.739Z,5.97
2018-05-12T03:42:00.405Z,5.57
2018-05-12T03:44:28.476Z,6.33
2018-05-12T03:46:56.012Z,5.90
2018-05-12T03:49:24.328Z,5.77
2018-05-12T03:51:52.082Z,6.07
2018-05-12T03:54:19.635Z,6.27
2018-05-12T03:56:47.219Z,6.07
2018-05-12T03:59:14.767Z,6.57
2018-05-12T04:01:42.327Z,6.17
2018-05-12T04:04:21.512Z,6.00
2018-05-12T04:07:01.737Z,6.57
2018-05-12T04:09:50.085Z,7.20
2018-05-12T04:12:29.466Z,6.30
2018-05-12T04:14:57.227Z,6.10
2018-05-12T04:17:24.777Z,6.60
2018-05-12T04:19:53.112Z,5.83
2018-05-12T04:22:21.618Z,6.37
2018-05-12T04:24:49.188Z,6.50
2018-05-12T04:27:17.511Z,6.63
2018-05-12T04:29:45.090Z,7.00
2018-05-12T04:32:12.644Z,7.07
2018-05-12T04:34:40.269Z,6.93
2018-05-12T04:37:07.833Z,6.23
2018-05-12T04:39:35.386Z,6.73
2018-05-12T04:42:02.956Z,6.30
2018-05-12T04:44:30.699Z,7.10
2018-05-12T04:46:59.031Z,6.50
2018-05-12T04:49:26.655Z,6.40
2018-05-12T04:51:54.225Z,6.80
2018-05-12T04:54:21.863Z,7.07
2018-05-12T04:56:49.412Z,7.37
2018-05-12T04:59:16.967Z,6.80
2018-05-12T05:01:44.523Z,6.57
2018-05-12T05:04:12.896Z,6.50
2018-05-12T05:06:40.433Z,7.03
2018-05-12T05:09:07.996Z,7.37
2018-05-12T05:11:36.321Z,6.47
2018-05-12T05:14:03.887Z,6.50
2018-05-12T05:16:31.436Z,6.80
2018-05-12T05:18:59.316Z,6.00
2018-05-12T05:21:26.901Z,6.50
2018-05-12T05:23:54.629Z,6.73
2018-05-12T05:26:22.348Z,6.57
2018-05-12T05:28:49.901Z,7.60
2018-05-12T05:31:17.488Z,7.30
2018-05-12T05:33:45.327Z,7.10
2018-05-12T05:36:13.042Z,7.30
2018-05-12T05:38:40.909Z,6.80
2018-05-12T05:41:08.505Z,6.90
2018-05-12T05:43:36.080Z,7.30
2018-05-12T05:46:03.656Z,7.77
2018-05-12T05:48:31.992Z,7.40
2018-05-12T05:50:59.524Z,7.60
2018-05-12T05:53:27.132Z,7.37
2018-05-12T05:55:54.729Z,8.33
2018-05-12T05:58:22.362Z,8.20
2018-05-12T06:00:50.709Z,7.93
2018-05-12T06:03:18.579Z,7.47
2018-05-12T06:05:46.162Z,8.50
2018-05-12T06:08:14.496Z,8.60
2018-05-12T06:10:42.082Z,7.80
2018-05-12T06:13:09.652Z,7.70
2018-05-12T06:15:37.202Z,7.77
2018-05-12T06:18:04.873Z,7.30
2018-05-12T06:20:32.352Z,8.30
2018-05-12T06:23:00.725Z,8.10
2018-05-12T06:25:28.291Z,8.70
2018-05-12T06:27:56.761Z,8.47
2018-05-12T06:30:24.252Z,7.93
2018-05-12T06:32:51.860Z,7.30
2018-05-12T06:35:19.413Z,8.30
2018-05-12T06:37:46.996Z,8.03
2018-05-12T06:40:15.315Z,7.97
2018-05-12T06:42:42.881Z,8.47
2018-05-12T06:45:10.568Z,8.43
2018-05-12T06:47:38.187Z,8.67
2018-05-12T06:50:05.788Z,8.67
2018-05-12T06:52:33.380Z,9.23
2018-05-12T06:55:01.717Z,8.53
2018-05-12T06:57:29.496Z,9.43
2018-05-12T06:59:57.109Z,9.07
2018-05-12T07:02:24.671Z,8.30
2018-05-12T07:04:52.349Z,9.17
2018-05-12T07:07:19.927Z,7.97
2018-05-12T07:09:47.534Z,8.47
2018-05-12T07:12:15.179Z,8.67
2018-05-12T07:14:42.992Z,8.13
2018-05-12T07:17:10.590Z,7.80
2018-05-12T07:19:38.188Z,9.20
2018-05-12T07:22:05.779Z,8.10
2018-05-12T07:24:33.332Z,7.47
2018-05-12T07:27:01.164Z,7.57
2018-05-12T07:29:28.944Z,9.07
2018-05-12T07:31:56.545Z,8.07
2018-05-12T07:34:24.109Z,7.47
2018-05-12T07:36:51.713Z,6.70
2018-05-12T07:39:19.329Z,6.93
2018-05-12T07:41:46.895Z,7.10
2018-05-12T07:44:14.445Z,6.53
2018-05-12T07:46:41.989Z,5.43
2018-05-12T07:49:09.562Z,4.03
2018-05-12T07:51:37.221Z,4.30
2018-05-12T07:54:05.529Z,4.60
2018-05-12T07:56:33.105Z,4.10
2018-05-12T07:59:00.820Z,4.37
2018-05-12T08:01:29.901Z,5.67
2018-05-12T08:03:57.483Z,4.73
2018-05-12T08:06:25.051Z,5.37
2018-05-12T08:08:52.694Z,5.00
2018-05-12T08:11:20.240Z,5.33
2018-05-12T08:13:47.881Z,5.00
2018-05-12T08:16:15.539Z,4.43
2018-05-12T08:18:43.224Z,4.73
2018-05-12T08:21:10.827Z,4.53
2018-05-12T08:23:38.417Z,4.20
2018-05-12T08:26:06.231Z,4.30
2018-05-12T08:28:33.764Z,4.57
2018-05-12T08:31:01.341Z,4.30
2018-05-12T08:33:28.985Z,4.60
2018-05-12T08:35:56.593Z,4.10
2018-05-12T08:38:24.194Z,4.10
2018-05-12T08:40:51.796Z,3.30
2018-05-12T08:43:19.357Z,4.33
2018-05-12T08:45:46.943Z,4.17
2018-05-12T08:48:14.598Z,3.53
2018-05-12T08:50:42.196Z,3.60
2018-05-12T08:53:09.936Z,3.57
2018-05-12T08:55:37.576Z,4.43
2018-05-12T08:58:06.199Z,4.90
2018-05-12T09:00:33.795Z,5.00
2018-05-12T09:03:01.407Z,4.93
2018-05-12T09:05:28.945Z,5.20
2018-05-12T09:07:56.562Z,4.47
2018-05-12T09:10:24.208Z,4.60
2018-05-12T09:12:51.758Z,4.43
2018-05-12T09:15:19.349Z,4.13
2018-05-12T09:17:46.937Z,4.63
2018-05-12T09:20:15.385Z,4.30
2018-05-12T09:22:42.960Z,3.97
2018-05-12T09:25:10.547Z,4.00
2018-05-12T09:27:38.122Z,4.47
2018-05-12T09:30:05.696Z,3.80
2018-05-12T09:32:33.557Z,4.30
2018-05-12T09:35:01.363Z,3.87
2018-05-12T09:37:29.055Z,3.47
2018-05-12T09:39:57.505Z,4.30
2018-05-12T09:42:25.255Z,3.90
2018-05-12T09:44:52.958Z,3.90
2018-05-12T09:47:21.207Z,3.40
2018-05-12T09:49:48.921Z,3.00
2018-05-12T09:52:16.529Z,3.37
2018-05-12T09:54:44.226Z,3.07
2018-05-12T09:57:11.816Z,3.17
2018-05-12T09:59:39.366Z,3.37
2018-05-12T10:02:07.033Z,3.47
2018-05-12T10:04:34.801Z,3.20
2018-05-12T10:07:02.409Z,3.30
2018-05-12T10:09:31.005Z,3.33
2018-05-12T10:11:58.531Z,2.92
2018-05-12T10:14:26.144Z,3.05
2018-05-12T10:16:53.702Z,2.37
2018-05-12T10:19:21.332Z,3.10
2018-05-12T10:21:49.052Z,2.85
2018-05-12T10:24:16.659Z,2.75
2018-05-12T10:26:45.096Z,2.83
2018-05-12T10:29:12.734Z,2.60
2018-05-12T10:31:40.313Z,2.95
2018-05-12T10:34:07.874Z,2.58
2018-05-12T10:36:35.521Z,3.60
2018-05-12T10:39:03.111Z,2.67
2018-05-12T10:41:30.802Z,2.75
2018-05-12T10:43:58.447Z,2.92
2018-05-12T10:46:26.024Z,2.85
2018-05-12T10:48:54.388Z,3.03
2018-05-12T10:51:21.960Z,2.62
2018-05-12T10:53:50.335Z,2.72
2018-05-12T10:56:17.921Z,2.78
2018-05-12T10:58:45.497Z,2.30
2018-05-12T11:01:13.064Z,2.42
2018-05-12T11:03:40.649Z,2.30
2018-05-12T11:06:08.231Z,2.35
2018-05-12T11:08:35.779Z,2.53
2018-05-12T11:11:03.379Z,2.30
2018-05-12T11:13:31.004Z,2.95
2018-05-12T11:15:58.648Z,2.30
2018-05-12T11:18:26.333Z,2.40
2018-05-12T11:20:53.946Z,2.28
2018-05-12T11:23:21.595Z,2.10
2018-05-12T11:25:49.178Z,2.30
2018-05-12T11:28:16.858Z,2.40
2018-05-12T11:30:44.587Z,2.40
2018-05-12T11:33:12.197Z,2.20
2018-05-12T11:35:40.837Z,2.50
2018-05-12T11:38:08.445Z,3.10
2018-05-12T11:40:36.061Z,2.53
2018-05-12T11:43:03.689Z,2.20
2018-05-12T11:45:31.306Z,2.37
2018-05-12T11:47:58.870Z,2.22
2018-05-12T11:50:27.951Z,2.20
2018-05-12T11:52:55.806Z,2.28
2018-05-12T11:55:23.371Z,2.28
2018-05-12T11:57:50.973Z,2.35
2018-05-12T12:00:18.755Z,2.30
2018-05-12T12:02:47.093Z,2.10
2018-05-12T12:05:14.652Z,1.85
2018-05-12T12:07:42.321Z,2.30
2018-05-12T12:10:09.895Z,2.42
2018-05-12T12:12:37.518Z,2.33
2018-05-12T12:15:05.119Z,2.42
2018-05-12T12:17:32.732Z,2.60
2018-05-12T12:20:00.325Z,2.47
2018-05-12T12:22:27.915Z,2.28
2018-05-12T12:24:56.260Z,2.90
2018-05-12T12:27:24.589Z,2.47
2018-05-12T12:29:52.233Z,2.30
2018-05-12T12:32:19.795Z,2.22
2018-05-12T12:34:47.382Z,2.50
2018-05-12T12:37:14.963Z,2.50
2018-05-12T12:39:42.607Z,2.28
2018-05-12T12:42:10.257Z,2.33
2018-05-12T12:44:37.883Z,2.12
2018-05-12T12:47:06.396Z,1.80
2018-05-12T12:49:33.960Z,2.20
2018-05-12T12:52:01.615Z,1.87
2018-05-12T12:54:29.185Z,2.10
2018-05-12T12:56:56.777Z,2.03
2018-05-12T12:59:24.548Z,2.40
2018-05-12T13:01:53.620Z,2.40
2018-05-12T13:04:21.198Z,1.75
2018-05-12T13:06:48.793Z,2.00
2018-05-12T13:09:16.620Z,1.98
2018-05-12T13:11:44.237Z,2.12
2018-05-12T13:14:11.825Z,1.95
2018-05-12T13:16:39.395Z,2.10
2018-05-12T13:19:06.950Z,2.20
2018-05-12T13:21:34.644Z,2.53
2018-05-12T13:24:02.133Z,2.10
2018-05-12T13:26:29.729Z,2.25
2018-05-12T13:28:57.335Z,2.40
2018-05-12T13:31:25.095Z,2.00
2018-05-12T13:33:53.447Z,2.20
2018-05-12T13:36:21.032Z,2.17
2018-05-12T13:38:49.374Z,2.30
2018-05-12T13:41:17.172Z,2.10
2018-05-12T13:43:44.876Z,2.17
2018-05-12T13:46:12.596Z,2.05
2018-05-12T13:48:41.209Z,2.10
2018-05-12T13:51:08.791Z,1.80
2018-05-12T13:53:36.535Z,2.15
2018-05-12T13:56:04.390Z,2.12
2018-05-12T13:58:31.975Z,2.05
2018-05-12T14:00:59.733Z,1.90
2018-05-12T14:03:27.451Z,1.90
2018-05-12T14:05:55.319Z,2.10
2018-05-12T14:08:23.943Z,1.75
2018-05-12T14:10:51.629Z,2.00
2018-05-12T14:13:19.223Z,1.90
2018-05-12T14:15:46.932Z,2.22
2018-05-12T14:18:14.499Z,2.25
2018-05-12T14:20:42.110Z,2.05
2018-05-12T14:23:10.505Z,1.62
2018-05-12T14:25:38.924Z,1.85
2018-05-12T14:28:06.495Z,1.80
2018-05-12T14:30:34.107Z,2.03
2018-05-12T14:33:01.716Z,1.98
2018-05-12T14:35:29.513Z,2.08
2018-05-12T14:37:57.869Z,2.15
2018-05-12T14:40:25.484Z,2.00
2018-05-12T14:42:53.057Z,2.33
2018-05-12T14:45:20.701Z,2.30
2018-05-12T14:47:48.483Z,1.92
2018-05-12T14:50:16.083Z,2.25
2018-05-12T14:52:43.652Z,2.12
2018-05-12T14:55:11.236Z,2.15
2018-05-12T14:57:38.903Z,1.92
2018-05-12T15:00:06.489Z,2.10
2018-05-12T15:02:34.068Z,2.00
2018-05-12T15:05:01.790Z,2.12
2018-05-12T15:07:29.378Z,2.10
2018-05-12T15:09:56.987Z,2.17
2018-05-12T15:12:25.585Z,2.50
2018-05-12T15:14:53.234Z,2.15
2018-05-12T15:17:20.764Z,2.42
2018-05-12T15:19:48.493Z,2.40
2018-05-12T15:22:16.087Z,2.00
2018-05-12T15:24:44.636Z,2.15
2018-05-12T15:27:12.430Z,2.30
2018-05-12T15:29:40.039Z,1.75
2018-05-12T15:32:07.838Z,2.33
2018-05-12T15:34:35.443Z,1.98
2018-05-12T15:37:03.785Z,2.03
2018-05-12T15:39:31.392Z,2.10
2018-05-12T15:41:58.985Z,1.90
2018-05-12T15:44:26.596Z,2.42
2018-05-12T15:46:54.153Z,2.20
2018-05-12T15:49:21.763Z,2.05
2018-05-12T15:51:49.365Z,2.45
2018-05-12T15:54:17.080Z,2.20
2018-05-12T15:56:44.682Z,2.45
2018-05-12T15:59:13.017Z,2.10
2018-05-12T16:01:40.625Z,2.55
2018-05-12T16:04:09.045Z,2.42
2018-05-12T16:06:36.861Z,2.30
2018-05-12T16:09:04.452Z,2.72
2018-05-12T16:11:32.808Z,9.27
2018-05-12T16:14:02.086Z,2.50
2018-05-12T16:16:29.684Z,4.78
2018-05-12T16:18:58.004Z,3.10
2018-05-12T16:21:25.765Z,2.25
2018-05-12T16:23:53.416Z,3.40
2018-05-12T16:26:20.979Z,2.65
2018-05-12T16:28:48.578Z,2.62
2018-05-12T16:31:16.200Z,2.45
2018-05-12T16:33:44.096Z,2.55
2018-05-12T16:36:11.691Z,2.50
2018-05-12T16:38:39.250Z,2.78
2018-05-12T16:41:07.733Z,2.40
2018-05-12T16:43:36.259Z,2.65
2018-05-12T16:46:03.980Z,3.00
2018-05-12T16:48:31.557Z,2.70
2018-05-12T16:50:59.230Z,3.00
2018-05-12T16:53:26.764Z,2.80
2018-05-12T16:55:54.359Z,2.65
2018-05-12T16:58:22.015Z,2.80
2018-05-12T17:00:49.638Z,2.65
2018-05-12T17:03:17.240Z,2.90
2018-05-12T17:05:44.800Z,3.00
2018-05-12T17:08:12.379Z,2.60
2018-05-12T17:10:39.970Z,2.43
2018-05-12T17:13:07.581Z,2.70
2018-05-12T17:15:35.158Z,2.67
2018-05-12T17:18:02.742Z,2.53
2018-05-12T17:20:30.386Z,2.70
2018-05-12T17:22:58.093Z,2.73
2018-05-12T17:25:25.768Z,2.97
2018-05-12T17:27:53.346Z,2.80
2018-05-12T17:30:20.919Z,2.80
2018-05-12T17:32:48.493Z,2.90
2018-05-12T17:35:16.076Z,2.93
2018-05-12T17:37:43.657Z,2.57
2018-05-12T17:40:11.318Z,2.47
2018-05-12T17:42:38.903Z,2.77
2018-05-12T17:45:06.813Z,2.57
2018-05-12T17:47:35.893Z,3.00
2018-05-12T17:50:03.644Z,2.50
2018-05-12T17:52:31.278Z,2.83
2018-05-12T17:54:58.875Z,3.07
2018-05-12T17:57:26.456Z,3.00
2018-05-12T17:59:55.545Z,3.30
2018-05-12T18:02:23.175Z,2.47
2018-05-12T18:04:50.997Z,2.77
2018-05-12T18:07:19.371Z,3.20
2018-05-12T18:09:47.718Z,3.30
2018-05-12T18:12:15.365Z,3.00
2018-05-12T18:14:43.085Z,3.10
2018-05-12T18:17:11.460Z,2.93
2018-05-12T18:19:39.250Z,2.90
2018-05-12T18:22:06.865Z,3.40
2018-05-12T18:24:34.449Z,3.13
2018-05-12T18:27:02.045Z,2.93
2018-05-12T18:29:29.617Z,2.90
2018-05-12T18:31:57.340Z,3.07
2018-05-12T18:34:24.981Z,3.37
2018-05-12T18:36:53.341Z,2.73
2018-05-12T18:39:20.925Z,3.20
2018-05-12T18:41:49.318Z,3.37
2018-05-12T18:44:16.997Z,3.23
2018-05-12T18:46:44.575Z,3.23
2018-05-12T18:49:12.197Z,3.13
2018-05-12T18:51:40.561Z,3.40
2018-05-12T18:54:08.274Z,3.50
2018-05-12T18:56:35.919Z,3.30
2018-05-12T18:59:03.458Z,3.67
2018-05-12T19:01:31.063Z,3.87
2018-05-12T19:03:58.729Z,3.70
2018-05-12T19:06:26.373Z,3.80
2018-05-12T19:08:54.215Z,4.30
2018-05-12T19:11:21.816Z,4.50
2018-05-12T19:13:49.415Z,4.53
2018-05-12T19:16:18.044Z,3.77
2018-05-12T19:18:45.736Z,4.43
2018-05-12T19:21:14.082Z,4.43
2018-05-12T19:23:41.679Z,4.70
2018-05-12T19:26:09.252Z,4.07
2018-05-12T19:28:36.877Z,4.27
2018-05-12T19:31:04.470Z,3.80
2018-05-12T19:33:32.047Z,4.20
2018-05-12T19:35:59.661Z,3.60
2018-05-12T19:38:27.599Z,4.10
2018-05-12T19:40:55.218Z,4.00
2018-05-12T19:43:23.026Z,3.90
2018-05-12T19:45:50.588Z,4.13
2018-05-12T19:48:18.167Z,4.07
2018-05-12T19:50:45.789Z,4.60
2018-05-12T19:53:13.429Z,4.00
2018-05-12T19:55:41.043Z,4.73
2018-05-12T19:58:08.659Z,5.07
2018-05-12T20:00:37.028Z,5.00
2018-05-12T20:03:04.812Z,5.50
2018-05-12T20:05:32.391Z,5.00
2018-05-12T20:08:00.023Z,5.80
2018-05-12T20:10:27.611Z,6.00
2018-05-12T20:12:55.226Z,5.73
2018-05-12T20:15:23.803Z,5.13
2018-05-12T20:17:51.402Z,5.10
2018-05-12T20:20:19.024Z,4.23
2018-05-12T20:22:47.400Z,4.53
2018-05-12T20:25:14.997Z,4.80
2018-05-12T20:27:42.609Z,4.80
2018-05-12T20:30:10.227Z,4.70
2018-05-12T20:32:37.869Z,5.80
2018-05-12T20:35:05.441Z,5.57
2018-05-12T20:37:33.107Z,5.43
2018-05-12T20:40:00.662Z,5.67
2018-05-12T20:42:28.289Z,5.57
2018-05-12T20:44:55.884Z,5.47
2018-05-12T20:47:23.514Z,5.63
2018-05-12T20:49:51.978Z,5.57
2018-05-12T20:52:19.562Z,5.50
2018-05-12T20:54:47.256Z,5.83
2018-05-12T20:57:14.866Z,5.47
2018-05-12T20:59:44.020Z,5.83
2018-05-12T21:02:11.602Z,6.00
2018-05-12T21:04:39.247Z,6.00
2018-05-12T21:07:06.889Z,4.67
2018-05-12T21:09:34.478Z,5.43
2018-05-12T21:12:02.137Z,5.10
2018-05-12T21:14:29.840Z,5.47
2018-05-12T21:16:58.235Z,6.43
2018-05-12T21:19:25.830Z,6.13
2018-05-12T21:21:54.147Z,5.83
2018-05-12T21:24:23.362Z,6.03
2018-05-12T21:26:51.738Z,6.07
2018-05-12T21:29:19.543Z,6.37
2018-05-12T21:31:48.004Z,6.60
2018-05-12T21:34:15.595Z,6.97
2018-05-12T21:36:43.212Z,7.90
2018-05-12T21:39:11.026Z,6.67
2018-05-12T21:41:38.628Z,6.50
2018-05-12T21:44:07.082Z,6.50
2018-05-12T21:46:34.689Z,6.60
2018-05-12T21:49:02.242Z,5.90
2018-05-12T21:51:30.020Z,6.33
2018-05-12T21:53:57.591Z,5.90
2018-05-12T21:56:25.194Z,6.50
2018-05-12T21:58:53.892Z,5.60
2018-05-12T22:01:21.401Z,6.90
2018-05-12T22:03:48.978Z,5.40
2018-05-12T22:06:16.567Z,5.43
2018-05-12T22:08:44.162Z,5.63
2018-05-12T22:11:11.721Z,5.73
2018-05-12T22:13:39.385Z,6.30
2018-05-12T22:16:06.987Z,5.97
2018-05-12T22:18:34.649Z,5.73
2018-05-12T22:21:02.220Z,7.20
2018-05-12T22:23:30.561Z,6.03
2018-05-12T22:25:58.160Z,6.97
2018-05-12T22:28:26.664Z,6.80
2018-05-12T22:30:55.021Z,6.20
2018-05-12T22:33:22.831Z,7.63
2018-05-12T22:35:50.403Z,6.77
2018-05-12T22:38:17.964Z,7.50
2018-05-12T22:40:45.543Z,8.63
2018-05-12T22:43:13.144Z,9.17
2018-05-12T22:45:40.715Z,8.93
2018-05-12T22:48:08.482Z,8.90
2018-05-12T22:50:36.168Z,8.23
2018-05-12T22:53:03.783Z,8.43
2018-05-12T22:55:31.471Z,8.03
2018-05-12T22:57:59.074Z,7.67
2018-05-12T23:00:28.413Z,7.60
2018-05-12T23:02:56.020Z,6.97
2018-05-12T23:05:23.789Z,7.23
2018-05-12T23:07:51.369Z,7.63
2018-05-12T23:10:18.974Z,8.03
2018-05-12T23:12:46.551Z,8.17
2018-05-12T23:15:14.124Z,8.00
2018-05-12T23:17:42.436Z,8.43
2018-05-12T23:20:10.221Z,8.00
2018-05-12T23:22:38.000Z,8.00
2018-05-12T23:25:05.716Z,8.07
2018-05-12T23:27:33.396Z,8.70
2018-05-12T23:30:01.857Z,8.67
2018-05-12T23:32:29.461Z,8.47
2018-05-12T23:34:57.047Z,8.73
2018-05-12T23:37:24.921Z,8.97
2018-05-12T23:39:52.491Z,9.90
2018-05-12T23:42:20.349Z,10.73
2018-05-12T23:44:47.838Z,9.80
2018-05-12T23:47:15.540Z,10.53
2018-05-12T23:49:43.103Z,9.83
2018-05-12T23:52:10.708Z,9.73
2018-05-12T23:54:38.307Z,11.83
2018-05-12T23:57:05.881Z,11.70
2018-05-12T23:59:33.489Z,11.33
